X  Close Metar Aviation Weather Data        CYYC Calgary International
Temperature
15°C Temperature
5°C Dewpoint
51% Humidity



Wind
20 KM/H
13 MPH
6 M/S
11 KTS



120°
ESE
Current Conditions

Partly Cloudy Partly Cloudy
Pressure 1021 (hPa) - 30.14 (inHg)
Visibility 15 (mile) - 24 (km)
Airport
Airport-code CYYC

Location: Calgary International
Distance: 4 (km)

Metar:
METAR CYYC 300500Z 12011KT 15SM SCT220 15/05 A3013 RMK CI3 SLP207 DENSITY ALT 4200FT

Time: 29-05-2020 23:00 MDT